Kansas City, Missouri
Traffic Map
Current Weather Conditions
Kansas City, Missouri
Scattered Clouds
Scattered Clouds
77°
Feels Like: 79°
Wind Chill: 77° Ceiling: Unl
Heat Index: 79° Visibility: 10mi
Dew Point: 58° Wind: 10mph
Humidity: 52% Direction: 230° (SW)
Pressure: 29.91in Gusts: 0mph
Raw Report DataKMKC 282354Z 23009KT 10SM FEW047 SCT060 25/14 A2991 RMK AO2 SLP123 T02500144 10256 20228 51006
Traffic Incident Summary
Active as of:
Severity:
Category:
InformationThere was an issue retrieving the traffic information for this location. Please try a different location or try again shortly.
Advertisements
Track Severe Weather on mobile